CDT,Max TemperatureF,Mean TemperatureF,Min TemperatureF,Max Dew PointF,MeanDew PointF,Min DewpointF,Max Humidity, Mean Humidity, Min Humidity, Max Sea Level PressureIn, Mean Sea Level PressureIn, Min Sea Level PressureIn, Max VisibilityMiles, Mean VisibilityMiles, Min VisibilityMiles, Max Wind SpeedMPH, Mean Wind SpeedMPH, Max Gust SpeedMPH,PrecipitationIn, CloudCover, Events, WindDirDegrees
2013-6-1,87,78,69,71,68,65,97,79,61,30.03,29.98,29.92,10,9,1,23,9,31,0.35,6,Rain-Thunderstorm,182
2013-6-2,82,75,67,72,68,65,100,78,55,29.98,29.93,29.88,10,10,8,14,4,21,T,6,Thunderstorm,229
2013-6-3,85,76,66,66,61,57,90,65,40,29.99,29.94,29.90,10,10,10,14,6,17,0.00,3,,7
2013-6-4,88,74,60,64,59,56,90,62,34,30.02,29.98,29.94,10,10,9,10,3,14,0.00,3,,48
2013-6-5,83,75,66,72,67,62,97,78,58,30.00,29.94,29.87,10,9,4,17,6,23,0.11,7,Rain-Thunderstorm,138
2013-6-6,86,76,66,69,67,65,100,78,55,29.88,29.81,29.73,10,9,4,10,4,18,0.00,4,Fog,245
2013-6-7,82,74,65,69,66,64,93,76,58,29.88,29.79,29.72,10,9,4,16,4,21,T,6,Rain,322
2013-6-8,85,74,63,66,62,56,100,69,37,30.03,29.95,29.88,10,5,0,14,4,17,0.00,5,Fog,195
2013-6-9,90,80,69,73,69,64,90,68,46,30.05,29.98,29.89,10,9,4,29,9,36,0.05,6,Rain-Thunderstorm,160
2013-6-10,89,78,67,70,67,61,93,67,40,29.99,29.94,29.89,10,9,2,18,8,30,0.32,5,Rain,222
2013-6-11,96,84,72,73,70,68,93,68,42,30.04,29.99,29.96,10,10,10,16,6,23,0.00,2,,254
2013-6-12,97,86,74,74,71,60,94,62,30,30.07,30.01,29.96,10,10,7,13,5,20,0.00,1,,242
2013-6-13,95,84,72,77,72,65,87,68,49,29.96,29.89,29.80,10,9,2,23,10,30,0.12,3,Rain-Thunderstorm,276
2013-6-14,88,77,66,65,59,52,87,59,30,30.01,29.96,29.90,10,10,10,18,8,29,0.00,1,,14
2013-6-15,91,77,62,67,62,59,93,66,38,30.09,30.04,30.01,10,10,10,15,5,23,0.00,2,,151
2013-6-16,92,81,70,70,67,63,87,67,47,30.09,30.03,29.98,10,10,9,21,7,28,T,4,Thunderstorm,152
2013-6-17,93,82,70,72,69,65,93,67,41,30.04,29.97,29.90,10,9,0,35,6,44,0.38,6,Fog-Rain-Thunderstorm,149
2013-6-18,84,77,69,73,69,65,93,78,62,29.95,29.90,29.86,10,7,1,18,8,25,0.42,7,Rain-Thunderstorm,289
2013-6-19,92,79,65,70,65,59,93,64,34,30.05,30.00,29.94,10,10,9,15,4,18,0.00,2,,42
2013-6-20,90,80,69,69,66,61,90,65,40,30.20,30.12,30.05,10,10,5,26,6,33,0.15,3,Rain-Thunderstorm,115
2013-6-21,89,78,67,69,66,63,90,67,43,30.22,30.17,30.12,10,10,10,13,6,21,0.00,1,,113
2013-6-22,90,80,69,68,65,60,90,64,38,30.20,30.14,30.06,10,10,8,13,5,20,0.00,1,,126
2013-6-23,90,79,68,70,67,64,90,68,46,30.16,30.10,30.06,10,10,10,14,5,17,0.00,2,,123
2013-6-24,91,81,70,73,70,68,93,72,50,30.21,30.13,30.07,10,10,9,23,5,26,0.00,4,,142
2013-6-25,93,83,73,73,71,65,93,67,41,30.16,30.09,30.01,10,8,5,16,5,21,0.00,4,Thunderstorm,189
2013-6-26,95,84,73,72,70,68,93,69,44,30.04,29.97,29.89,10,10,8,18,8,24,0.00,2,,222
2013-6-27,96,83,70,76,71,67,93,68,42,29.96,29.89,29.82,10,10,6,17,8,31,0.09,5,Rain-Thunderstorm,256
2013-6-28,90,82,73,73,70,65,94,70,46,29.84,29.78,29.69,10,9,7,17,7,24,0.00,5,,255
2013-6-29,91,80,69,72,62,52,97,62,26,29.72,29.70,29.66,10,10,8,18,6,25,T,2,,289
2013-6-30,89,77,64,67,61,55,87,61,34,29.81,29.74,29.70,10,10,10,17,4,24,T,4,Rain-Thunderstorm,275